Time;durP1;ratioP1;P1;durP2;ratioP2;P2;SDS_P1;SDS_P2;PMS_P1;PMS_P2;Temp;Humidity;BMP_temperature;BMP_pressure;BME280_temperature;BME280_humidity;BME280_pressure;Samples;Min_cycle;Max_cycle;Signal;HPM_P1;HPM_P2
2022/06/13 09:08:32;;;;;;;31.60;27.73;;;;;;;;;;5054936;27;73514;-64
2022/06/13 09:12:47;;;;;;;30.40;27.50;;;;;;;;;;4845959;27;65945;-62
2022/06/13 09:15:17;;;;;;;30.48;26.25;;;;;;;;;;5035825;28;20041;-59
2022/06/13 09:17:59;;;;;;;30.20;26.92;;;;;;;;;;5026870;28;20049;-58
2022/06/13 09:20:27;;;;;;;43.25;29.10;;;;;;;;;;5026277;28;20036;-58
2022/06/13 09:22:59;;;;;;;41.03;28.77;;;;;;;;;;5027640;28;20040;-58
2022/06/13 09:25:26;;;;;;;33.60;28.38;;;;;;;;;;5026012;28;20026;-58
2022/06/13 09:28:06;;;;;;;32.30;29.23;;;;;;;;;;5022550;28;20097;-62
2022/06/13 09:30:35;;;;;;;31.25;28.63;;;;;;;;;;5021854;28;20065;-61
2022/06/13 09:33:06;;;;;;;31.98;28.90;;;;;;;;;;5022742;28;20354;-62
2022/06/13 09:35:34;;;;;;;31.25;28.35;;;;;;;;;;5023161;28;20407;-61
2022/06/13 09:38:04;;;;;;;32.53;29.55;;;;;;;;;;5022050;28;20017;-60
2022/06/13 09:40:39;;;;;;;32.42;29.42;;;;;;;;;;5021524;28;20088;-62
2022/06/13 09:43:25;;;;;;;31.45;28.83;;;;;;;;;;5021173;28;20018;-64
2022/06/13 09:46:09;;;;;;;30.92;28.58;;;;;;;;;;4972539;28;20478;-63
2022/06/13 09:48:45;;;;;;;31.27;28.55;;;;;;;;;;5021887;28;20101;-65
2022/06/13 09:51:11;;;;;;;30.60;28.10;;;;;;;;;;5021044;28;20501;-67
2022/06/13 09:53:37;;;;;;;31.02;28.63;;;;;;;;;;5021196;28;20465;-64
2022/06/13 09:56:07;;;;;;;32.95;30.50;;;;;;;;;;5020891;28;20466;-59
2022/06/13 09:58:35;;;;;;;32.50;29.85;;;;;;;;;;5020854;28;20486;-57
2022/06/13 10:01:07;;;;;;;32.08;29.88;;;;;;;;;;5020029;28;20109;-67
2022/06/13 10:03:53;;;;;;;32.10;29.70;;;;;;;;;;5020604;28;20034;-67
2022/06/13 10:06:26;;;;;;;32.83;30.05;;;;;;;;;;5021236;28;20029;-65
2022/06/13 10:09:00;;;;;;;32.38;29.83;;;;;;;;;;5020635;28;20030;-62
2022/06/13 10:11:30;;;;;;;31.90;29.58;;;;;;;;;;5020764;28;20049;-64
2022/06/13 10:14:06;;;;;;;31.15;29.02;;;;;;;;;;5021449;28;20022;-64
2022/06/13 10:16:52;;;;;;;31.65;29.30;;;;;;;;;;5020819;28;20049;-61
2022/06/13 10:19:24;;;;;;;31.73;29.33;;;;;;;;;;5021248;28;20079;-63
2022/06/13 10:21:56;;;;;;;32.47;30.00;;;;;;;;;;5020210;28;20032;-62
2022/06/13 10:24:23;;;;;;;31.83;29.33;;;;;;;;;;5007678;28;20029;-62
2022/06/13 10:27:04;;;;;;;31.80;29.40;;;;;;;;;;5007672;28;20440;-62
2022/06/13 10:29:33;;;;;;;32.00;29.60;;;;;;;;;;5007678;28;20026;-62
2022/06/13 10:32:14;;;;;;;35.83;32.63;;;;;;;;;;5007820;28;20025;-65
2022/06/13 10:34:50;;;;;;;38.47;35.67;;;;;;;;;;5008273;28;20030;-66
2022/06/13 10:37:16;;;;;;;;;;;;;;;;;;5009675;28;20018;-65
2022/06/13 10:39:42;;;;;;;;;;;;;;;;;;5009025;28;19917;-63
2022/06/13 10:42:08;;;;;;;;;;;;;;;;;;5007082;28;20305;-60
2022/06/13 10:48:42;;;;;;;;;;;;;;;;;;5123201;27;20294;-61
2022/06/13 13:18:19;;;;;;;;;;;;;;;;;;5108613;27;19918;-62
2022/06/13 13:21:20;;;;;;;;;;;;;;;;;;5108350;27;19919;-64
2022/06/13 13:23:46;;;;;;;;;;;;;;;;;;5109051;28;19918;-62
2022/06/13 13:28:23;;;;;;;;;;;;;;;;;;5088963;27;19913;-64
2022/06/13 13:30:49;;;;;;;;;;;;;;;;;;5088573;28;19919;-61
2022/06/13 13:33:15;;;;;;;;;;;;;;;;;;5091579;28;19985;-60
2022/06/13 13:59:20;;;;;;;;;;;;;;;;;;5108072;27;20007;-62
